Time;durP1;ratioP1;P1;durP2;ratioP2;P2;SDS_P1;SDS_P2;PMS_P1;PMS_P2;Temp;Humidity;BMP_temperature;BMP_pressure;BME280_temperature;BME280_humidity;BME280_pressure;Samples;Min_cycle;Max_cycle;Signal;HPM_P1;HPM_P2
2023/06/23 00:00:13;;;;;;;11.50;6.97;;;;;;;18.49;99.11;94921.50;5098069;28;20728;-75
2023/06/23 00:02:40;;;;;;;12.93;8.02;;;;;;;18.41;99.07;94920.63;5088890;28;20198;-75
2023/06/23 00:05:08;;;;;;;12.10;7.47;;;;;;;18.30;99.31;94925.16;5090051;28;20202;-75
2023/06/23 00:07:36;;;;;;;8.52;6.65;;;;;;;18.25;99.53;94917.25;5089068;28;20252;-75
2023/06/23 00:10:05;;;;;;;11.40;6.70;;;;;;;18.28;99.57;94916.50;5089846;28;20209;-75
2023/06/23 00:12:33;;;;;;;17.50;7.47;;;;;;;18.35;99.13;94924.81;5089131;28;20241;-75
2023/06/23 00:15:01;;;;;;;14.98;6.55;;;;;;;18.37;99.07;94925.25;5103591;28;20244;-75
2023/06/23 00:17:27;;;;;;;13.40;7.32;;;;;;;18.38;98.92;94923.31;5109293;28;20244;-75
2023/06/23 00:19:54;;;;;;;13.20;7.55;;;;;;;18.35;99.67;94916.59;5109461;28;20209;-75
2023/06/23 00:22:21;;;;;;;14.40;6.25;;;;;;;18.41;99.32;94914.34;5108671;28;20720;-75
2023/06/23 00:24:49;;;;;;;13.88;6.30;;;;;;;18.42;98.66;94916.72;5109913;28;20652;-75
2023/06/23 00:27:16;;;;;;;13.88;7.50;;;;;;;18.26;99.50;94926.25;5109470;28;20201;-75
2023/06/23 00:29:43;;;;;;;15.40;8.18;;;;;;;18.19;99.85;94926.94;5109630;28;20198;-75
2023/06/23 00:32:09;;;;;;;11.75;7.90;;;;;;;18.17;100.00;94925.72;5109496;28;20205;-74
2023/06/23 00:34:36;;;;;;;13.80;7.68;;;;;;;18.21;100.00;94915.59;5110476;28;20214;-74
2023/06/23 00:37:03;;;;;;;16.60;7.65;;;;;;;18.18;100.00;94910.88;5112661;27;20645;-74
2023/06/23 00:39:31;;;;;;;12.43;8.50;;;;;;;18.13;100.00;94920.19;5116062;27;20370;-74
2023/06/23 00:42:05;;;;;;;12.48;8.23;;;;;;;18.10;100.00;94920.91;5087984;28;20234;-74
2023/06/23 00:44:33;;;;;;;15.45;7.30;;;;;;;18.12;100.00;94913.13;5107133;28;20288;-74
2023/06/23 00:47:00;;;;;;;15.35;7.72;;;;;;;18.18;100.00;94911.63;5109080;28;20205;-74
2023/06/23 00:49:27;;;;;;;11.63;7.88;;;;;;;18.09;100.00;94902.88;5109428;28;20623;-74
2023/06/23 00:51:54;;;;;;;13.48;8.52;;;;;;;18.05;100.00;94904.78;5108959;28;20208;-74
2023/06/23 00:54:28;;;;;;;11.80;6.85;;;;;;;18.03;100.00;94910.66;5108939;28;20206;-74
2023/06/23 00:56:58;;;;;;;11.50;8.00;;;;;;;18.05;100.00;94915.75;5108872;28;20228;-74
2023/06/23 00:59:28;;;;;;;15.57;7.68;;;;;;;18.01;100.00;94912.97;5106421;28;20221;-74
2023/06/23 01:01:58;;;;;;;12.65;7.72;;;;;;;18.00;100.00;94916.06;5108331;28;20209;-74
2023/06/23 01:04:25;;;;;;;12.40;7.90;;;;;;;17.99;100.00;94909.00;5109028;28;20212;-74
2023/06/23 01:07:04;;;;;;;12.27;8.02;;;;;;;17.95;100.00;94916.38;5108735;28;20333;-74
2023/06/23 01:09:39;;;;;;;14.30;8.07;;;;;;;17.84;100.00;94907.19;5098747;28;20679;-74
2023/06/23 01:12:12;;;;;;;13.93;7.47;;;;;;;17.71;100.00;94903.84;5113199;28;20567;-75
2023/06/23 01:14:49;;;;;;;12.57;7.57;;;;;;;17.52;100.00;94907.38;5111662;28;20748;-75
2023/06/23 01:17:23;;;;;;;16.40;8.05;;;;;;;17.35;100.00;94913.38;5112577;28;20230;-74
2023/06/23 01:19:55;;;;;;;12.35;7.97;;;;;;;17.56;100.00;94912.94;5112961;28;20217;-75
2023/06/23 01:22:46;;;;;;;12.93;8.50;;;;;;;17.74;100.00;94914.88;5112894;28;20197;-75
2023/06/23 01:25:27;;;;;;;12.38;7.45;;;;;;;17.66;100.00;94907.66;5112249;27;20202;-75
2023/06/23 01:28:08;;;;;;;12.13;8.75;;;;;;;17.60;100.00;94909.13;5106293;28;20201;-75
2023/06/23 01:30:39;;;;;;;14.63;7.93;;;;;;;17.55;100.00;94912.16;5112810;28;20201;-74
2023/06/23 01:33:09;;;;;;;13.27;7.93;;;;;;;17.50;100.00;94898.75;5124905;27;20673;-75
2023/06/23 01:35:43;;;;;;;13.60;8.55;;;;;;;17.55;100.00;94900.41;5112399;28;20193;-75
2023/06/23 01:38:18;;;;;;;12.07;7.75;;;;;;;17.60;100.00;94909.13;5105332;28;20688;-75
2023/06/23 01:40:50;;;;;;;14.73;7.97;;;;;;;17.67;100.00;94914.72;5111920;28;20224;-75
2023/06/23 01:43:20;;;;;;;12.63;8.40;;;;;;;17.69;100.00;94901.47;5111622;28;20325;-74
2023/06/23 01:45:49;;;;;;;12.52;8.40;;;;;;;17.74;100.00;94892.94;5113460;27;20633;-74
2023/06/23 01:48:16;;;;;;;12.95;8.48;;;;;;;17.59;100.00;94893.84;5117357;27;20206;-75
2023/06/23 01:50:44;;;;;;;16.35;8.88;;;;;;;17.51;100.00;94894.84;5112461;28;21018;-75
2023/06/23 01:53:12;;;;;;;13.18;8.60;;;;;;;17.49;100.00;94894.44;5112108;28;20571;-75
2023/06/23 01:55:41;;;;;;;14.73;8.82;;;;;;;17.53;100.00;94902.72;5112097;28;20209;-75
2023/06/23 01:58:08;;;;;;;15.00;9.55;;;;;;;17.52;100.00;94910.13;5111154;28;20236;-75
2023/06/23 02:00:37;;;;;;;16.50;9.35;;;;;;;17.54;100.00;94909.78;5108809;28;20205;-75
2023/06/23 02:03:07;;;;;;;14.65;9.57;;;;;;;17.58;100.00;94900.47;5111750;28;20206;-75
2023/06/23 02:05:36;;;;;;;13.13;8.77;;;;;;;17.57;100.00;94914.53;5112137;28;20193;-75
2023/06/23 02:08:04;;;;;;;15.15;7.70;;;;;;;17.53;100.00;94908.97;5112186;28;20198;-75
2023/06/23 02:10:31;;;;;;;16.80;9.40;;;;;;;17.46;100.00;94905.34;5112002;28;20197;-75
2023/06/23 02:12:59;;;;;;;17.45;8.90;;;;;;;17.44;100.00;94913.91;5111976;28;20201;-75
2023/06/23 02:15:28;;;;;;;13.43;8.30;;;;;;;17.48;100.00;94917.50;5111801;28;20206;-75
2023/06/23 02:17:56;;;;;;;12.95;8.60;;;;;;;17.50;100.00;94914.38;5111440;28;20243;-75
2023/06/23 02:20:28;;;;;;;11.70;8.15;;;;;;;17.55;100.00;94905.88;5112046;28;20292;-75
2023/06/23 02:22:57;;;;;;;12.35;8.35;;;;;;;17.55;100.00;94905.88;5111830;28;20217;-75
2023/06/23 02:25:24;;;;;;;12.82;8.32;;;;;;;17.48;100.00;94905.75;5111668;28;20251;-75
2023/06/23 02:27:52;;;;;;;11.75;7.63;;;;;;;17.52;100.00;94907.38;5110872;28;20664;-75
2023/06/23 02:30:19;;;;;;;15.02;8.38;;;;;;;17.46;100.00;94908.88;5119356;27;20224;-75
2023/06/23 02:32:47;;;;;;;12.48;8.52;;;;;;;17.42;100.00;94902.53;5114506;27;20206;-75
2023/06/23 02:35:14;;;;;;;15.05;8.70;;;;;;;17.43;100.00;94909.59;5111863;28;20194;-75
2023/06/23 02:37:47;;;;;;;14.65;8.30;;;;;;;17.41;100.00;94911.91;5114038;27;20198;-75
2023/06/23 02:40:18;;;;;;;16.92;9.27;;;;;;;17.48;100.00;94895.59;5108996;28;20656;-75
2023/06/23 02:42:50;;;;;;;14.43;8.70;;;;;;;17.54;100.00;94898.81;5101388;28;20703;-75
2023/06/23 02:45:23;;;;;;;17.65;8.10;;;;;;;17.54;100.00;94910.56;5104571;28;20485;-75
2023/06/23 02:47:55;;;;;;;12.05;8.20;;;;;;;17.60;100.00;94902.84;5097908;28;20208;-75
2023/06/23 02:50:28;;;;;;;14.43;8.00;;;;;;;17.60;100.00;94909.13;5101214;27;20198;-75
2023/06/23 02:53:01;;;;;;;15.93;8.48;;;;;;;17.66;100.00;94907.66;5100636;28;20198;-74
2023/06/23 02:55:30;;;;;;;11.02;7.95;;;;;;;17.62;100.00;94909.53;5100022;28;20556;-74
2023/06/23 02:58:00;;;;;;;12.88;8.57;;;;;;;17.63;100.00;94908.41;5102124;28;20207;-76
2023/06/23 03:00:29;;;;;;;11.27;8.18;;;;;;;17.73;100.00;94904.28;5102237;28;20594;-76
2023/06/23 03:02:59;;;;;;;14.52;8.18;;;;;;;17.81;100.00;94896.94;5110373;28;20202;-74
2023/06/23 03:05:27;;;;;;;15.88;8.77;;;;;;;17.92;100.00;94897.91;5101311;27;20201;-74
2023/06/23 03:07:53;;;;;;;18.55;8.70;;;;;;;17.98;100.00;94891.75;5120949;27;20198;-74
2023/06/23 03:10:22;;;;;;;15.00;8.88;;;;;;;18.10;100.00;94898.97;5107279;28;20203;-73
2023/06/23 03:12:49;;;;;;;18.83;9.80;;;;;;;18.31;100.00;94893.81;5108167;28;20198;-74
2023/06/23 03:15:16;;;;;;;12.10;9.27;;;;;;;18.51;100.00;94890.94;5110092;28;20537;-74
2023/06/23 03:17:45;;;;;;;14.95;9.40;;;;;;;18.78;98.96;94895.25;5110493;28;20281;-74
2023/06/23 03:20:17;;;;;;;16.58;9.52;;;;;;;18.92;97.88;94895.44;5111516;27;20312;-74
2023/06/23 03:22:49;;;;;;;15.80;9.93;;;;;;;19.55;95.39;94889.06;5106641;27;20227;-75
2023/06/23 03:25:22;;;;;;;12.10;8.75;;;;;;;20.29;91.90;94897.16;5099344;28;20284;-74
2023/06/23 03:27:52;;;;;;;15.20;9.40;;;;;;;21.03;86.28;94888.53;5100143;28;20205;-74
2023/06/23 03:30:24;;;;;;;14.68;9.35;;;;;;;21.59;83.75;94892.66;5098563;28;20201;-74
2023/06/23 03:32:55;;;;;;;13.38;8.50;;;;;;;22.13;81.61;94890.75;5100843;28;20663;-74
2023/06/23 03:35:28;;;;;;;12.40;8.35;;;;;;;22.76;78.74;94889.06;5099766;28;20194;-74
2023/06/23 03:37:59;;;;;;;13.90;7.82;;;;;;;23.05;75.96;94893.31;5099952;28;20607;-74
2023/06/23 03:40:30;;;;;;;15.98;8.43;;;;;;;23.60;73.71;94889.91;5096758;28;20312;-77
2023/06/23 03:43:06;;;;;;;15.57;8.45;;;;;;;23.97;72.34;94880.97;5099514;28;20735;-76
2023/06/23 03:45:35;;;;;;;11.38;7.45;;;;;;;24.45;70.47;94883.75;5102441;28;20235;-77
2023/06/23 03:48:04;;;;;;;11.63;8.38;;;;;;;24.74;69.23;94887.00;5100229;28;20256;-77
2023/06/23 03:50:34;;;;;;;11.68;8.13;;;;;;;24.99;68.22;94884.00;5097531;28;20651;-78
2023/06/23 03:53:03;;;;;;;15.32;10.15;;;;;;;25.87;65.99;94882.03;5110496;28;20594;-77
2023/06/23 03:55:32;;;;;;;12.32;8.40;;;;;;;25.81;65.65;94884.50;5110315;28;20721;-78
2023/06/23 03:58:04;;;;;;;12.98;7.82;;;;;;;26.54;62.68;94880.94;5118775;27;20245;-77
2023/06/23 04:00:32;;;;;;;14.98;11.18;;;;;;;26.76;62.03;94875.78;5112344;27;20924;-77
2023/06/23 04:03:02;;;;;;;16.60;11.82;;;;;;;26.62;62.05;94878.84;5110097;28;20259;-77
2023/06/23 04:05:30;;;;;;;17.13;11.77;;;;;;;27.33;60.06;94885.84;5110120;28;20204;-77
2023/06/23 04:08:00;;;;;;;15.43;12.38;;;;;;;27.93;57.87;94883.72;5110314;28;20210;-78
2023/06/23 04:10:28;;;;;;;13.27;11.90;;;;;;;28.02;57.41;94889.47;5113368;27;20291;-77
2023/06/23 04:12:57;;;;;;;17.05;11.05;;;;;;;28.36;55.95;94891.09;5108802;27;20251;-77
2023/06/23 04:15:27;;;;;;;13.13;11.70;;;;;;;28.58;54.92;94895.69;5092270;28;20722;-77
2023/06/23 04:17:56;;;;;;;16.15;11.27;;;;;;;29.26;53.13;94897.47;5110095;28;20572;-77
2023/06/23 04:20:25;;;;;;;15.38;11.30;;;;;;;28.74;54.05;94903.25;5109621;28;20695;-77
2023/06/23 04:22:53;;;;;;;14.45;11.60;;;;;;;28.90;54.05;94911.63;5110038;28;20213;-77
2023/06/23 04:25:21;;;;;;;15.93;12.20;;;;;;;28.58;54.03;94901.25;5109512;28;20205;-77
2023/06/23 04:27:51;;;;;;;15.57;12.23;;;;;;;28.17;55.84;94903.84;5123696;27;20205;-77
2023/06/23 04:30:20;;;;;;;13.77;11.88;;;;;;;28.77;54.47;94905.16;5103002;27;20292;-78
2023/06/23 04:32:49;;;;;;;15.15;11.77;;;;;;;30.00;51.75;94900.09;5115748;27;20585;-77
2023/06/23 04:35:16;;;;;;;17.75;12.07;;;;;;;30.11;50.93;94913.75;5109495;28;20206;-78
2023/06/23 04:37:46;;;;;;;16.90;12.70;;;;;;;30.51;49.66;94902.06;5109392;28;20659;-77
2023/06/23 04:40:20;;;;;;;18.40;12.63;;;;;;;30.63;49.81;94906.88;5109767;28;20233;-77
2023/06/23 04:42:50;;;;;;;14.00;11.73;;;;;;;31.67;47.17;94902.81;5109605;28;20247;-78
2023/06/23 04:45:21;;;;;;;13.30;11.90;;;;;;;32.42;45.90;94902.72;5109373;28;20201;-77
2023/06/23 04:47:55;;;;;;;17.30;11.93;;;;;;;32.64;44.72;94906.22;5109915;28;20201;-77
2023/06/23 04:50:24;;;;;;;14.02;11.98;;;;;;;33.30;43.29;94900.25;5114413;28;20651;-78
2023/06/23 04:52:54;;;;;;;16.05;11.63;;;;;;;33.01;43.73;94904.25;5116593;27;20209;-78
2023/06/23 04:55:29;;;;;;;18.15;13.25;;;;;;;33.57;42.84;94903.03;5116468;28;20197;-77
2023/06/23 04:57:58;;;;;;;15.10;12.90;;;;;;;33.02;42.65;94903.00;5116218;28;20636;-78
2023/06/23 05:00:27;;;;;;;17.10;13.23;;;;;;;32.79;43.75;94906.44;5101090;28;20247;-78
2023/06/23 05:02:57;;;;;;;18.48;13.13;;;;;;;33.09;42.98;94907.53;5096158;28;20282;-79
2023/06/23 05:05:26;;;;;;;19.42;12.82;;;;;;;32.61;43.45;94901.53;5096184;28;20251;-75
2023/06/23 05:07:54;;;;;;;22.33;14.50;;;;;;;31.01;46.40;94913.19;5095684;28;20206;-78
2023/06/23 05:10:23;;;;;;;17.58;13.45;;;;;;;30.90;47.09;94917.56;5112585;28;20270;-78
2023/06/23 05:12:54;;;;;;;19.73;13.68;;;;;;;31.15;47.79;94911.16;5116183;28;20209;-78
2023/06/23 05:15:22;;;;;;;18.30;13.65;;;;;;;31.75;45.43;94915.31;5116078;27;20242;-78
2023/06/23 05:17:53;;;;;;;21.35;12.75;;;;;;;32.29;44.95;94904.84;5116466;28;20201;-75
2023/06/23 05:20:24;;;;;;;20.25;12.20;;;;;;;33.72;42.14;94908.78;5115940;28;20221;-78
2023/06/23 05:22:52;;;;;;;14.63;11.77;;;;;;;33.98;41.42;94914.84;5116190;28;20288;-76
2023/06/23 05:25:23;;;;;;;16.00;12.20;;;;;;;33.41;41.86;94917.41;5115505;28;20236;-76
2023/06/23 05:27:57;;;;;;;16.90;12.30;;;;;;;34.48;40.43;94916.84;5115961;28;20202;-78
2023/06/23 05:30:25;;;;;;;14.45;11.98;;;;;;;34.72;40.38;94921.72;5115756;28;20201;-76
2023/06/23 05:32:54;;;;;;;15.05;11.60;;;;;;;34.34;41.09;94934.41;5115950;27;20616;-76
2023/06/23 05:35:24;;;;;;;18.75;12.77;;;;;;;33.21;42.32;94931.91;5116092;28;20205;-77
2023/06/23 05:37:52;;;;;;;13.70;12.25;;;;;;;32.86;43.28;94931.38;5115453;28;20255;-76
2023/06/23 05:40:19;;;;;;;20.52;12.45;;;;;;;33.51;42.51;94944.22;5124518;27;20691;-76
2023/06/23 05:42:47;;;;;;;14.35;12.93;;;;;;;33.09;42.93;94936.38;5105250;27;20337;-77
2023/06/23 05:45:14;;;;;;;15.50;13.18;;;;;;;34.14;41.82;94931.34;5106160;28;20205;-76
2023/06/23 05:47:43;;;;;;;14.73;12.68;;;;;;;34.44;40.48;94930.28;5115774;27;20206;-77
2023/06/23 05:50:18;;;;;;;15.00;12.63;;;;;;;34.39;40.63;94925.34;5115896;28;20297;-77
2023/06/23 05:52:56;;;;;;;17.98;12.80;;;;;;;35.62;38.03;94925.94;5115399;27;20192;-77
2023/06/23 05:55:26;;;;;;;16.52;13.15;;;;;;;35.59;38.57;94928.94;5115779;27;20197;-78
2023/06/23 05:57:59;;;;;;;16.48;12.95;;;;;;;35.83;37.63;94929.69;5115972;28;20237;-77
2023/06/23 06:00:30;;;;;;;14.65;13.15;;;;;;;35.73;38.28;94928.19;5115249;28;20245;-77
2023/06/23 06:03:01;;;;;;;16.35;12.75;;;;;;;34.74;40.34;94936.09;5112330;28;20204;-77
2023/06/23 06:05:30;;;;;;;16.23;12.18;;;;;;;34.93;41.11;94940.41;5112453;28;20208;-76
2023/06/23 06:07:59;;;;;;;18.50;13.52;;;;;;;33.43;43.24;94946.59;5122197;27;20205;-76
2023/06/23 06:10:27;;;;;;;17.67;14.20;;;;;;;33.05;43.17;94943.44;5099138;27;20210;-76
2023/06/23 06:12:56;;;;;;;16.48;14.13;;;;;;;32.76;44.10;94941.81;5092250;28;20311;-76
2023/06/23 06:15:23;;;;;;;16.63;13.55;;;;;;;33.68;42.93;94937.03;5091724;28;20297;-77
2023/06/23 06:17:53;;;;;;;16.90;13.70;;;;;;;33.68;42.28;94936.25;5103025;28;20229;-77
2023/06/23 06:20:22;;;;;;;14.57;13.07;;;;;;;34.26;42.44;94936.00;5121608;27;20668;-75
2023/06/23 06:22:51;;;;;;;17.80;13.10;;;;;;;34.41;41.95;94934.09;5091870;28;20222;-76
2023/06/23 06:25:19;;;;;;;15.50;12.52;;;;;;;34.67;42.40;94933.63;5091705;28;20608;-78
2023/06/23 06:27:48;;;;;;;16.15;12.20;;;;;;;36.18;38.63;94923.38;5091676;28;20275;-76
2023/06/23 06:30:17;;;;;;;15.48;13.25;;;;;;;35.88;38.72;94926.19;5111250;28;20213;-79
2023/06/23 06:32:45;;;;;;;14.98;13.05;;;;;;;35.43;39.53;94923.78;5111703;28;20725;-76
2023/06/23 06:35:13;;;;;;;18.70;13.02;;;;;;;34.94;39.89;94919.44;5111206;28;20591;-76
2023/06/23 06:37:47;;;;;;;17.08;14.10;;;;;;;34.96;39.67;94919.72;5110806;28;20586;-76
2023/06/23 06:40:17;;;;;;;14.35;12.32;;;;;;;36.85;37.35;94910.31;5111229;28;20247;-76
2023/06/23 06:42:45;;;;;;;13.85;12.13;;;;;;;38.00;35.89;94908.59;5110851;28;20256;-76
2023/06/23 06:45:12;;;;;;;17.80;13.10;;;;;;;36.89;36.51;94906.03;5111529;28;20698;-76
2023/06/23 06:47:44;;;;;;;18.05;13.25;;;;;;;36.67;37.06;94911.31;5111549;28;20616;-76
2023/06/23 06:50:14;;;;;;;16.23;13.38;;;;;;;35.79;38.10;94906.56;5111791;28;20201;-77
2023/06/23 06:52:42;;;;;;;15.50;12.48;;;;;;;36.17;38.15;94897.19;5120766;27;20251;-77
2023/06/23 06:55:15;;;;;;;15.43;12.25;;;;;;;36.53;37.72;94890.31;5102199;28;20202;-77
2023/06/23 06:57:43;;;;;;;17.58;12.25;;;;;;;36.39;37.28;94890.34;5111309;28;20574;-78
2023/06/23 07:00:12;;;;;;;15.43;13.38;;;;;;;35.53;39.37;94888.63;5110769;28;20225;-77
2023/06/23 07:02:40;;;;;;;18.05;13.20;;;;;;;36.15;38.00;94876.38;5104546;28;20214;-78
2023/06/23 07:05:08;;;;;;;15.75;13.88;;;;;;;34.95;40.31;94884.38;5104511;28;20300;-78
2023/06/23 07:07:34;;;;;;;16.88;13.00;;;;;;;34.45;41.18;94875.56;5111170;28;20589;-78
2023/06/23 07:10:01;;;;;;;15.40;12.40;;;;;;;35.14;40.46;94868.88;5103508;28;20194;-77
2023/06/23 07:12:28;;;;;;;19.85;14.10;;;;;;;35.01;40.07;94867.56;5098025;28;20701;-77
2023/06/23 07:14:55;;;;;;;20.10;13.35;;;;;;;35.17;40.26;94862.28;5096255;28;20582;-76
2023/06/23 07:17:23;;;;;;;14.52;13.02;;;;;;;35.85;38.88;94865.13;5090932;28;20203;-76
2023/06/23 07:19:50;;;;;;;16.17;13.70;;;;;;;34.09;41.38;94865.25;5105585;28;20599;-77
2023/06/23 07:22:18;;;;;;;15.20;13.00;;;;;;;36.09;38.27;94856.53;5110948;28;20552;-78
2023/06/23 07:24:44;;;;;;;15.35;13.68;;;;;;;35.80;38.50;94857.34;5110344;28;20338;-78
2023/06/23 07:27:14;;;;;;;16.15;13.57;;;;;;;34.78;40.56;94863.53;5109026;28;20198;-78
2023/06/23 07:29:41;;;;;;;17.23;14.38;;;;;;;33.36;42.38;94873.06;5105423;28;20584;-78
2023/06/23 07:32:09;;;;;;;16.90;13.65;;;;;;;34.09;41.95;94870.09;5110219;28;20227;-78
2023/06/23 07:34:37;;;;;;;14.60;12.30;;;;;;;33.62;43.28;94871.47;5110636;28;20205;-78
2023/06/23 07:37:04;;;;;;;19.90;14.10;;;;;;;33.05;43.33;94874.00;5111087;28;20206;-77
2023/06/23 07:39:31;;;;;;;15.32;13.02;;;;;;;33.25;45.93;94864.34;5110539;28;20310;-78
2023/06/23 07:41:58;;;;;;;17.15;12.82;;;;;;;34.49;43.63;94864.16;5110019;28;20257;-77
2023/06/23 07:44:25;;;;;;;16.02;13.63;;;;;;;32.68;44.44;94873.16;5108380;28;20239;-77
2023/06/23 07:46:52;;;;;;;21.77;13.85;;;;;;;32.14;47.09;94865.34;5107804;28;20205;-77
2023/06/23 07:49:18;;;;;;;16.55;14.15;;;;;;;31.91;46.28;94860.28;5110846;28;20206;-78
2023/06/23 07:51:47;;;;;;;16.27;14.10;;;;;;;32.73;45.31;94857.75;5110102;28;20205;-77
2023/06/23 07:54:13;;;;;;;20.05;13.70;;;;;;;33.76;43.33;94853.22;5110589;28;20209;-78
2023/06/23 07:56:40;;;;;;;15.48;12.73;;;;;;;33.97;43.00;94857.81;5110928;28;20209;-76
2023/06/23 07:59:07;;;;;;;17.92;12.25;;;;;;;33.62;43.52;94865.88;5106134;28;20248;-76
2023/06/23 08:01:34;;;;;;;12.80;10.93;;;;;;;34.18;41.82;94847.56;5098917;28;20225;-77
2023/06/23 08:04:00;;;;;;;17.20;12.95;;;;;;;34.78;41.54;94849.44;5108629;28;20686;-77
2023/06/23 08:06:27;;;;;;;15.90;12.50;;;;;;;33.75;43.77;94851.63;5108298;28;20292;-77
2023/06/23 08:08:55;;;;;;;15.60;12.57;;;;;;;32.59;45.40;94855.53;5108025;28;20212;-76
2023/06/23 08:11:22;;;;;;;17.08;11.85;;;;;;;33.83;43.05;94848.03;5108054;28;20622;-77
2023/06/23 08:13:50;;;;;;;19.00;12.32;;;;;;;33.87;43.07;94851.44;5108946;28;20201;-77
2023/06/23 08:16:17;;;;;;;16.33;12.63;;;;;;;33.91;42.26;94850.47;5120997;27;20201;-76
2023/06/23 08:18:44;;;;;;;18.27;12.48;;;;;;;34.42;41.88;94853.25;5091137;27;20263;-76
2023/06/23 08:21:11;;;;;;;16.75;12.93;;;;;;;33.38;42.71;94857.31;5088226;28;20728;-79
2023/06/23 08:23:38;;;;;;;15.80;12.93;;;;;;;33.23;43.02;94849.97;5088018;28;20206;-77
2023/06/23 08:26:06;;;;;;;14.88;12.65;;;;;;;33.08;43.38;94856.22;5088526;28;20228;-77
2023/06/23 08:28:33;;;;;;;17.15;12.02;;;;;;;32.77;44.84;94858.41;5088265;28;20206;-77
2023/06/23 08:31:00;;;;;;;13.52;11.98;;;;;;;32.23;44.57;94865.44;5088443;28;20206;-76
2023/06/23 08:33:27;;;;;;;15.32;13.35;;;;;;;31.89;45.71;94851.56;5087798;28;20692;-76
2023/06/23 08:35:53;;;;;;;14.60;13.00;;;;;;;32.13;45.75;94850.56;5098395;28;20254;-77
2023/06/23 08:38:24;;;;;;;16.52;11.73;;;;;;;31.68;45.50;94845.56;5102352;27;20213;-77
2023/06/23 08:40:52;;;;;;;17.75;12.43;;;;;;;31.23;46.27;94850.84;5102812;28;20305;-77
2023/06/23 08:43:25;;;;;;;16.90;11.52;;;;;;;31.48;45.60;94856.28;5112276;28;20221;-77
2023/06/23 08:45:56;;;;;;;14.32;11.77;;;;;;;31.54;44.86;94851.69;5099652;28;20270;-78
2023/06/23 08:48:25;;;;;;;14.35;11.73;;;;;;;31.84;46.18;94843.75;5099200;28;20198;-78
2023/06/23 08:50:54;;;;;;;13.60;10.57;;;;;;;31.93;43.80;94841.00;5106204;28;20258;-78
2023/06/23 08:53:21;;;;;;;12.18;10.30;;;;;;;32.70;44.79;94836.22;5103882;28;20266;-77
2023/06/23 08:55:49;;;;;;;13.82;10.63;;;;;;;31.87;43.22;94848.44;5103090;28;20259;-78
2023/06/23 08:58:17;;;;;;;16.80;9.90;;;;;;;31.72;43.56;94843.38;5092282;28;20665;-77
2023/06/23 09:00:45;;;;;;;16.67;9.50;;;;;;;31.85;43.38;94839.69;5106937;28;20225;-77
2023/06/23 09:03:13;;;;;;;12.95;10.27;;;;;;;32.36;41.26;94829.63;5099789;28;20202;-77
2023/06/23 09:05:40;;;;;;;14.82;9.40;;;;;;;33.25;39.49;94828.59;5102606;28;20747;-78
2023/06/23 09:08:07;;;;;;;11.95;8.63;;;;;;;33.61;38.97;94829.81;5106107;28;20198;-75
2023/06/23 09:10:34;;;;;;;13.20;9.02;;;;;;;33.41;39.55;94827.50;5102498;28;20209;-78
2023/06/23 09:13:18;;;;;;;14.45;9.70;;;;;;;33.22;40.24;94831.53;5104024;28;20197;-78
2023/06/23 09:15:47;;;;;;;13.43;9.25;;;;;;;33.09;40.44;94814.88;5094997;28;20216;-77
2023/06/23 09:18:15;;;;;;;11.85;9.38;;;;;;;32.85;40.49;94825.97;5105049;28;20660;-77
2023/06/23 09:20:45;;;;;;;12.45;9.60;;;;;;;33.03;42.68;94825.19;5105311;28;20233;-78
2023/06/23 09:23:15;;;;;;;12.52;9.10;;;;;;;33.04;40.61;94819.09;5109972;28;20736;-79
2023/06/23 09:25:44;;;;;;;15.55;10.65;;;;;;;32.77;43.34;94816.31;5111604;28;21067;-75
2023/06/23 09:28:24;;;;;;;14.77;10.80;;;;;;;32.77;43.45;94813.50;5108080;28;20289;-79
2023/06/23 09:30:53;;;;;;;13.80;10.63;;;;;;;32.07;44.58;94820.78;5108419;28;20660;-78
2023/06/23 09:33:21;;;;;;;13.60;10.20;;;;;;;32.32;44.33;94814.97;5105890;28;20199;-76
2023/06/23 09:35:49;;;;;;;12.70;9.77;;;;;;;31.91;42.98;94821.81;5101999;27;20736;-74
2023/06/23 09:38:18;;;;;;;14.63;10.55;;;;;;;31.51;44.14;94810.56;5107404;27;20242;-76
2023/06/23 09:40:45;;;;;;;16.63;10.15;;;;;;;31.48;45.38;94811.47;5107198;27;20226;-76
2023/06/23 09:43:14;;;;;;;15.40;10.27;;;;;;;31.38;44.69;94813.47;5109564;28;20233;-76
2023/06/23 09:45:41;;;;;;;14.25;10.95;;;;;;;31.40;44.55;94821.41;5110501;28;20657;-77
2023/06/23 09:48:20;;;;;;;13.02;10.25;;;;;;;31.50;44.15;94813.81;5109866;27;20572;-77
2023/06/23 09:51:00;;;;;;;18.88;10.75;;;;;;;31.49;46.43;94813.03;5110600;27;20636;-79
2023/06/23 09:53:26;;;;;;;13.80;10.13;;;;;;;30.86;46.93;94814.16;5104218;27;20186;-78
2023/06/23 09:55:53;;;;;;;15.13;9.98;;;;;;;30.92;45.31;94803.94;5111433;27;20632;-78
2023/06/23 09:58:20;;;;;;;13.40;9.73;;;;;;;30.77;47.33;94808.50;5109720;28;20205;-77
2023/06/23 10:00:47;;;;;;;15.27;10.10;;;;;;;31.07;44.47;94804.22;5108710;27;20552;-79
2023/06/23 10:03:14;;;;;;;13.18;9.52;;;;;;;31.19;44.18;94805.41;5110758;27;20259;-77
2023/06/23 10:05:42;;;;;;;19.65;9.75;;;;;;;31.27;43.95;94801.09;5108668;28;20256;-77
2023/06/23 10:08:11;;;;;;;12.63;9.15;;;;;;;30.94;43.59;94801.47;5100555;27;20194;-77
2023/06/23 10:10:43;;;;;;;15.63;8.82;;;;;;;31.20;44.81;94796.53;5096254;28;20209;-78
2023/06/23 10:13:10;;;;;;;13.45;9.07;;;;;;;31.50;44.51;94789.41;5113770;27;20675;-77
2023/06/23 10:15:39;;;;;;;14.88;9.32;;;;;;;31.40;45.63;94796.97;5109519;27;20686;-77
2023/06/23 10:18:06;;;;;;;14.45;9.63;;;;;;;31.03;44.02;94798.72;5106583;27;20274;-77
2023/06/23 10:20:33;;;;;;;14.00;9.20;;;;;;;31.47;43.88;94781.91;5108956;28;20202;-77
2023/06/23 10:23:03;;;;;;;13.77;9.10;;;;;;;31.69;45.82;94785.47;5106782;28;20670;-78
2023/06/23 10:25:30;;;;;;;10.80;9.27;;;;;;;31.76;43.22;94781.59;5105996;27;20202;-77
2023/06/23 10:28:00;;;;;;;14.00;9.40;;;;;;;31.66;44.77;94778.00;5105745;28;20240;-78
2023/06/23 10:30:29;;;;;;;14.75;10.48;;;;;;;31.35;43.52;94774.38;5108853;28;20259;-78
2023/06/23 10:32:57;;;;;;;13.15;9.48;;;;;;;30.89;44.01;94776.88;5102609;28;20212;-78
2023/06/23 10:35:25;;;;;;;14.60;9.98;;;;;;;30.63;44.54;94786.63;5109780;27;20521;-77
2023/06/23 10:38:04;;;;;;;13.43;9.77;;;;;;;31.20;43.73;94776.16;5105054;27;20299;-78
2023/06/23 10:40:36;;;;;;;12.57;9.13;;;;;;;31.53;44.69;94768.88;5089989;28;20238;-77
2023/06/23 10:43:05;;;;;;;12.15;8.85;;;;;;;31.84;43.66;94770.91;5102916;27;20238;-77
2023/06/23 10:45:32;;;;;;;9.55;8.10;;;;;;;31.17;43.99;94774.28;5106707;27;20666;-77
2023/06/23 10:47:59;;;;;;;11.75;8.38;;;;;;;31.24;42.16;94765.63;5109493;28;20251;-78
2023/06/23 10:50:29;;;;;;;13.05;8.63;;;;;;;31.07;44.03;94760.19;5104799;27;20648;-77
2023/06/23 10:52:57;;;;;;;14.95;8.95;;;;;;;31.74;43.69;94756.84;5108509;28;20288;-78
2023/06/23 10:55:44;;;;;;;13.38;9.00;;;;;;;32.08;43.99;94755.06;5102935;27;20251;-78
2023/06/23 10:58:12;;;;;;;15.38;8.40;;;;;;;32.75;40.27;94743.78;5103416;28;20197;-77
2023/06/23 11:00:39;;;;;;;13.02;10.07;;;;;;;33.03;39.86;94750.16;5105196;27;20262;-77
2023/06/23 11:03:09;;;;;;;10.70;8.00;;;;;;;32.78;40.61;94745.66;5108617;27;20194;-77
2023/06/23 11:05:42;;;;;;;10.68;8.35;;;;;;;32.28;40.80;94749.03;5106738;27;20300;-76
2023/06/23 11:08:12;;;;;;;12.75;9.30;;;;;;;31.42;41.73;94751.72;5103885;28;20233;-78
2023/06/23 11:10:59;;;;;;;13.57;8.73;;;;;;;31.79;41.67;94739.44;5104045;27;20688;-76
2023/06/23 11:13:26;;;;;;;15.30;8.90;;;;;;;32.08;41.34;94738.25;5106357;27;20259;-77
2023/06/23 11:15:55;;;;;;;10.10;8.73;;;;;;;31.95;42.46;94732.78;5101486;28;20197;-78
2023/06/23 11:18:23;;;;;;;11.77;8.55;;;;;;;31.85;42.03;94733.19;5101688;27;20652;-76
2023/06/23 11:20:50;;;;;;;13.68;8.05;;;;;;;31.79;42.05;94725.41;5108310;27;20320;-77
2023/06/23 11:23:17;;;;;;;14.32;9.00;;;;;;;32.43;40.07;94728.34;5107050;28;20296;-76
2023/06/23 11:25:46;;;;;;;11.23;7.78;;;;;;;32.36;40.38;94714.63;5108708;27;20705;-77
2023/06/23 11:28:34;;;;;;;12.32;8.75;;;;;;;32.49;40.00;94718.06;5097404;28;20197;-77